Time;durP1;ratioP1;P1;durP2;ratioP2;P2;SDS_P1;SDS_P2;PMS_P1;PMS_P2;Temp;Humidity;BMP_temperature;BMP_pressure;BME280_temperature;BME280_humidity;BME280_pressure;Samples;Min_cycle;Max_cycle;Signal;HPM_P1;HPM_P2
2023/04/05 00:01:29;;;;;;;0.10;0.10;;;-2.70;99.90;;;;;;5073779;28;20044;-80
2023/04/05 00:03:56;;;;;;;0.10;0.10;;;-2.80;99.90;;;;;;5074267;28;20494;-80
2023/04/05 00:06:27;;;;;;;0.35;0.35;;;-2.80;99.90;;;;;;5073777;28;20051;-79
2023/04/05 00:08:54;;;;;;;0.10;0.10;;;-2.80;99.90;;;;;;5053712;28;20125;-79
2023/04/05 00:11:23;;;;;;;0.10;0.10;;;-2.80;99.90;;;;;;5053880;28;20080;-80
2023/04/05 00:13:49;;;;;;;0.10;0.10;;;-2.90;99.90;;;;;;5053006;28;20124;-80
2023/04/05 00:16:16;;;;;;;0.00;0.00;;;-3.00;99.90;;;;;;5052373;28;20153;-81
2023/04/05 00:18:48;;;;;;;0.17;0.17;;;-3.10;99.90;;;;;;5053169;28;20437;-80
2023/04/05 00:21:15;;;;;;;0.10;0.10;;;-3.10;99.90;;;;;;5060419;28;20047;-79
2023/04/05 00:23:43;;;;;;;0.10;0.10;;;-3.10;99.90;;;;;;5072622;28;20087;-79
2023/04/05 00:26:10;;;;;;;0.10;0.10;;;-3.20;99.90;;;;;;5072809;28;20052;-80
2023/04/05 00:28:36;;;;;;;0.10;0.10;;;-3.20;99.90;;;;;;5071855;28;20115;-80
2023/04/05 00:31:02;;;;;;;0.03;0.03;;;-3.20;99.90;;;;;;5072895;28;20072;-79
2023/04/05 00:33:28;;;;;;;0.10;0.10;;;-3.20;99.90;;;;;;5073024;28;20036;-79
2023/04/05 00:35:53;;;;;;;0.10;0.10;;;-3.30;99.90;;;;;;5074071;28;20060;-81
2023/04/05 00:38:19;;;;;;;0.00;0.00;;;-3.30;99.90;;;;;;5072618;28;20041;-81
2023/04/05 00:40:45;;;;;;;0.10;0.10;;;-3.40;99.90;;;;;;5056459;28;20044;-81
2023/04/05 00:43:10;;;;;;;0.00;0.00;;;-3.40;99.90;;;;;;5074184;28;20045;-80
2023/04/05 00:45:36;;;;;;;0.10;0.10;;;-3.40;99.90;;;;;;5074416;28;20135;-80
2023/04/05 00:48:02;;;;;;;0.10;0.10;;;-3.40;99.90;;;;;;5073308;28;20548;-80
2023/04/05 00:50:31;;;;;;;0.32;0.32;;;-3.40;99.90;;;;;;5057372;28;20041;-79
2023/04/05 00:52:57;;;;;;;0.03;0.03;;;-3.40;99.90;;;;;;5073008;28;20372;-80
2023/04/05 00:55:25;;;;;;;0.00;0.00;;;-3.50;99.90;;;;;;5073494;28;20147;-79
2023/04/05 00:57:52;;;;;;;0.10;0.10;;;-3.60;99.90;;;;;;5072783;28;20067;-80
2023/04/05 01:00:20;;;;;;;0.10;0.10;;;-3.60;99.90;;;;;;5056847;28;20064;-79
2023/04/05 01:02:54;;;;;;;0.10;0.10;;;-3.60;99.90;;;;;;5070863;28;20041;-79
2023/04/05 01:05:25;;;;;;;0.10;0.10;;;-3.50;99.90;;;;;;5072472;28;20045;-79
2023/04/05 01:08:17;;;;;;;0.00;0.00;;;-3.50;99.90;;;;;;5072195;28;20090;-80
2023/04/05 01:10:50;;;;;;;0.10;0.10;;;-3.60;99.90;;;;;;5071454;28;20105;-79
2023/04/05 01:13:16;;;;;;;0.00;0.00;;;-3.60;99.90;;;;;;5072126;28;20128;-80
2023/04/05 01:15:42;;;;;;;0.10;0.10;;;-3.60;99.90;;;;;;5072097;28;20517;-80
2023/04/05 01:18:10;;;;;;;0.10;0.10;;;-3.50;99.90;;;;;;5071775;28;20076;-80
2023/04/05 01:20:44;;;;;;;0.22;0.22;;;-3.30;99.90;;;;;;5054625;28;20049;-79
2023/04/05 01:23:23;;;;;;;0.00;0.00;;;-3.20;99.90;;;;;;5051760;28;20057;-79
2023/04/05 01:26:18;;;;;;;0.10;0.10;;;-3.20;99.90;;;;;;5052041;28;20049;-80
2023/04/05 01:29:06;;;;;;;0.00;0.00;;;-3.30;99.90;;;;;;5052459;28;20061;-80
2023/04/05 01:32:10;;;;;;;0.08;0.08;;;-3.20;99.90;;;;;;5070335;28;20059;-79
2023/04/05 01:35:01;;;;;;;0.32;0.32;;;-3.10;99.90;;;;;;5066673;28;20064;-79
2023/04/05 01:37:31;;;;;;;0.00;0.00;;;-3.10;99.90;;;;;;5071198;28;20051;-80
2023/04/05 01:39:58;;;;;;;0.10;0.10;;;-3.00;99.90;;;;;;5060337;28;20135;-80
2023/04/05 01:42:25;;;;;;;0.80;0.80;;;-3.10;99.90;;;;;;5065950;28;20521;-80
2023/04/05 01:44:55;;;;;;;0.25;0.25;;;-3.10;99.90;;;;;;5072450;28;20044;-80
2023/04/05 01:47:21;;;;;;;0.55;0.55;;;-3.30;99.90;;;;;;5067934;28;20097;-80
2023/04/05 01:49:47;;;;;;;0.10;0.10;;;-3.40;99.90;;;;;;5061137;28;20127;-81
2023/04/05 01:52:12;;;;;;;0.10;0.10;;;-4.10;99.90;;;;;;5056396;28;20044;-80
2023/04/05 01:54:38;;;;;;;0.10;0.10;;;-3.50;99.90;;;;;;5057424;28;20098;-80
2023/04/05 01:57:04;;;;;;;0.10;0.10;;;-3.50;99.90;;;;;;5071712;28;20048;-80
2023/04/05 01:59:30;;;;;;;0.10;0.10;;;-3.60;99.90;;;;;;5072161;28;20444;-80
2023/04/05 02:01:56;;;;;;;0.05;0.05;;;-3.60;99.90;;;;;;5071104;28;20393;-80
2023/04/05 02:04:22;;;;;;;0.20;0.20;;;-3.60;99.90;;;;;;5072154;28;20424;-80
2023/04/05 02:06:47;;;;;;;0.05;0.05;;;-3.60;99.90;;;;;;5072147;28;20056;-80
2023/04/05 02:09:13;;;;;;;0.08;0.08;;;-3.70;99.90;;;;;;5064927;28;20041;-80
2023/04/05 02:11:39;;;;;;;0.00;0.00;;;-3.70;99.90;;;;;;5052185;28;20045;-80
2023/04/05 02:14:05;;;;;;;1.45;1.35;;;-3.80;99.90;;;;;;5052234;28;20077;-80
2023/04/05 02:16:33;;;;;;;0.52;0.52;;;-3.80;99.90;;;;;;5052335;28;20057;-80
2023/04/05 02:18:59;;;;;;;12.25;2.30;;;-3.80;99.90;;;;;;5053061;28;20390;-80
2023/04/05 02:21:25;;;;;;;0.10;0.10;;;-3.80;99.90;;;;;;5059643;28;20047;-80
2023/04/05 02:23:54;;;;;;;0.10;0.10;;;-3.80;99.90;;;;;;5071825;28;20040;-80
2023/04/05 02:26:20;;;;;;;0.10;0.10;;;-3.90;99.90;;;;;;5071815;28;20048;-80
2023/04/05 02:28:46;;;;;;;0.65;0.65;;;-4.00;99.90;;;;;;5071488;28;20050;-80
2023/04/05 02:31:12;;;;;;;0.10;0.10;;;-4.00;99.90;;;;;;5071128;28;20288;-80
2023/04/05 02:33:39;;;;;;;0.10;0.10;;;-4.10;99.90;;;;;;5072487;28;20062;-80
2023/04/05 02:36:06;;;;;;;0.13;0.13;;;-4.10;99.90;;;;;;5072153;28;20052;-80
2023/04/05 02:38:35;;;;;;;0.20;0.20;;;-4.10;99.90;;;;;;5072459;28;20040;-80
2023/04/05 02:41:01;;;;;;;0.10;0.10;;;-4.10;99.90;;;;;;5055892;28;20040;-80
2023/04/05 02:43:27;;;;;;;0.10;0.10;;;-4.00;99.90;;;;;;5071934;28;20041;-81
2023/04/05 02:45:53;;;;;;;0.00;0.00;;;-4.00;99.90;;;;;;5071588;28;20067;-80
2023/04/05 02:48:19;;;;;;;0.00;0.00;;;-4.00;99.90;;;;;;5072179;28;20124;-80
2023/04/05 02:50:49;;;;;;;0.10;0.10;;;-4.10;99.90;;;;;;5055222;28;20155;-81
2023/04/05 02:53:18;;;;;;;0.40;0.40;;;-4.10;99.90;;;;;;5052230;28;20280;-80
2023/04/05 02:55:55;;;;;;;0.10;0.10;;;-3.90;99.90;;;;;;5052467;28;20100;-80
2023/04/05 02:58:22;;;;;;;0.10;0.10;;;-3.90;99.90;;;;;;5052441;28;20060;-80
2023/04/05 03:00:49;;;;;;;0.10;0.10;;;-3.90;99.90;;;;;;5051955;28;20486;-80
2023/04/05 03:03:19;;;;;;;0.10;0.10;;;-4.00;99.90;;;;;;5051009;28;20045;-80
2023/04/05 03:05:47;;;;;;;0.10;0.10;;;-4.10;99.90;;;;;;5051572;28;20052;-80
2023/04/05 03:08:18;;;;;;;0.10;0.10;;;-4.10;99.90;;;;;;5051355;28;20048;-81
2023/04/05 03:10:47;;;;;;;0.10;0.10;;;-4.10;99.90;;;;;;5062509;28;20052;-79
2023/04/05 03:13:13;;;;;;;2.22;1.95;;;-4.10;99.90;;;;;;5048735;28;20041;-79
2023/04/05 03:15:40;;;;;;;0.00;0.00;;;-4.10;99.90;;;;;;5049322;28;20041;-79
2023/04/05 03:18:07;;;;;;;0.10;0.10;;;-4.20;99.90;;;;;;5049518;28;20041;-80
2023/04/05 03:20:38;;;;;;;1.00;0.85;;;-4.10;99.90;;;;;;5062311;28;20293;-79
2023/04/05 03:23:06;;;;;;;0.10;0.10;;;-4.10;99.90;;;;;;5068339;28;20517;-79
2023/04/05 03:25:34;;;;;;;0.10;0.10;;;-4.10;99.90;;;;;;5069303;28;20036;-79
2023/04/05 03:28:02;;;;;;;0.68;0.68;;;-4.10;99.90;;;;;;5068816;28;20119;-80
2023/04/05 03:30:28;;;;;;;0.05;0.05;;;-3.90;99.90;;;;;;5055694;28;20069;-79
2023/04/05 03:32:56;;;;;;;0.00;0.00;;;-3.80;99.90;;;;;;5048891;28;20090;-79
2023/04/05 03:35:21;;;;;;;0.15;0.15;;;-3.70;99.90;;;;;;5055079;28;20087;-80
2023/04/05 03:37:47;;;;;;;0.35;0.35;;;-3.70;99.90;;;;;;5065148;28;20079;-79
2023/04/05 03:40:13;;;;;;;4.30;1.67;;;-3.60;99.90;;;;;;5048907;28;20048;-79
2023/04/05 03:42:38;;;;;;;0.10;0.10;;;-3.70;99.90;;;;;;5047874;28;20624;-78
2023/04/05 03:45:05;;;;;;;0.45;0.45;;;-3.70;99.90;;;;;;5048359;28;20049;-79
2023/04/05 03:47:30;;;;;;;3.10;1.05;;;-3.70;99.90;;;;;;5056613;28;20549;-80
2023/04/05 03:49:56;;;;;;;0.20;0.20;;;-3.70;99.90;;;;;;5068223;28;20410;-80
2023/04/05 03:52:22;;;;;;;0.10;0.10;;;-3.60;99.90;;;;;;5068078;28;20104;-80
2023/04/05 03:54:47;;;;;;;0.73;0.73;;;-3.60;99.90;;;;;;5067709;28;20084;-79
2023/04/05 03:57:13;;;;;;;0.00;0.00;;;-3.60;99.90;;;;;;5060426;28;21251;-79
2023/04/05 03:59:39;;;;;;;0.45;0.43;;;-3.30;99.90;;;;;;5057968;28;20483;-80
2023/04/05 04:02:04;;;;;;;0.10;0.10;;;-3.20;99.90;;;;;;5067488;28;20052;-79
2023/04/05 04:04:30;;;;;;;0.00;0.00;;;-3.10;99.90;;;;;;5066077;28;20052;-79
2023/04/05 04:06:56;;;;;;;0.10;0.10;;;-3.10;99.90;;;;;;5067165;28;20040;-80
2023/04/05 04:09:22;;;;;;;0.15;0.15;;;-3.10;99.90;;;;;;5067500;28;20044;-79
2023/04/05 04:11:48;;;;;;;1.60;1.45;;;-3.20;99.90;;;;;;5066532;28;20098;-79
2023/04/05 04:14:14;;;;;;;0.10;0.10;;;-3.10;99.90;;;;;;5067570;28;20550;-79
2023/04/05 04:16:39;;;;;;;0.28;0.28;;;-3.00;99.90;;;;;;5062720;28;20976;-81
2023/04/05 04:19:05;;;;;;;0.08;0.08;;;-3.00;99.90;;;;;;5052073;28;20048;-80
2023/04/05 04:21:31;;;;;;;0.10;0.10;;;-2.90;99.90;;;;;;5067982;28;20076;-79
2023/04/05 04:23:59;;;;;;;0.10;0.10;;;-2.90;99.90;;;;;;5068297;28;20518;-79
2023/04/05 04:26:28;;;;;;;0.10;0.10;;;-2.80;99.90;;;;;;5070846;28;20127;-79
2023/04/05 04:28:56;;;;;;;0.13;0.13;;;-2.80;99.90;;;;;;5051654;28;20214;-79
2023/04/05 04:31:22;;;;;;;0.30;0.30;;;-2.70;99.90;;;;;;5051019;28;20041;-79
2023/04/05 04:33:50;;;;;;;0.15;0.15;;;-2.70;99.90;;;;;;5050840;28;20509;-79
2023/04/05 04:36:17;;;;;;;0.10;0.10;;;-2.80;99.90;;;;;;5064496;28;20117;-80
2023/04/05 04:38:43;;;;;;;0.20;0.20;;;-2.70;99.90;;;;;;5052022;28;20446;-79
2023/04/05 04:41:10;;;;;;;0.15;0.15;;;-2.60;99.90;;;;;;5052020;28;20084;-79
2023/04/05 04:43:41;;;;;;;1.98;0.90;;;-2.50;99.90;;;;;;5052146;28;20355;-79
2023/04/05 04:46:10;;;;;;;0.10;0.10;;;-2.50;99.90;;;;;;5071512;28;20052;-81
2023/04/05 04:48:36;;;;;;;0.43;0.43;;;-2.50;99.90;;;;;;5072220;28;20059;-80
2023/04/05 04:51:05;;;;;;;0.20;0.20;;;-2.40;99.90;;;;;;5072096;28;20134;-80
2023/04/05 04:53:31;;;;;;;0.57;0.25;;;-2.40;99.90;;;;;;5072533;28;20051;-80
2023/04/05 04:55:56;;;;;;;0.30;0.30;;;-2.40;99.90;;;;;;5071822;28;20131;-79
2023/04/05 04:58:22;;;;;;;1.40;0.68;;;-2.40;99.90;;;;;;5072384;28;20041;-80
2023/04/05 05:00:48;;;;;;;0.00;0.00;;;-2.50;99.90;;;;;;5072504;28;20044;-79
2023/04/05 05:03:13;;;;;;;5.75;1.05;;;-2.50;99.90;;;;;;5072387;28;20044;-80
2023/04/05 05:05:47;;;;;;;0.82;0.77;;;-2.40;99.90;;;;;;5074244;28;20043;-80
2023/04/05 05:08:13;;;;;;;0.20;0.20;;;-2.50;99.90;;;;;;5059739;28;20522;-80
2023/04/05 05:10:39;;;;;;;0.10;0.10;;;-2.60;99.90;;;;;;5071907;28;20057;-80
2023/04/05 05:13:05;;;;;;;1.20;1.10;;;-2.80;99.90;;;;;;5073228;28;20132;-80
2023/04/05 05:15:31;;;;;;;0.10;0.10;;;-2.70;99.90;;;;;;5072947;28;20076;-80
2023/04/05 05:17:57;;;;;;;0.10;0.10;;;-2.70;99.90;;;;;;5073272;28;20226;-80
2023/04/05 05:20:24;;;;;;;0.55;0.55;;;-2.70;99.90;;;;;;5057924;28;20432;-79
2023/04/05 05:22:50;;;;;;;0.65;0.43;;;-2.70;99.90;;;;;;5051114;28;20095;-80
2023/04/05 05:25:15;;;;;;;0.15;0.15;;;-2.80;99.90;;;;;;5051434;28;20052;-80
2023/04/05 05:27:41;;;;;;;1.00;0.90;;;-2.90;99.90;;;;;;5051351;28;20083;-80
2023/04/05 05:30:08;;;;;;;0.10;0.10;;;-2.90;99.90;;;;;;5051228;28;20117;-79
2023/04/05 05:32:33;;;;;;;0.10;0.10;;;-3.00;99.90;;;;;;5050176;28;20403;-79
2023/04/05 05:34:59;;;;;;;0.08;0.08;;;-3.00;99.90;;;;;;5062075;28;20829;-80
2023/04/05 05:37:30;;;;;;;0.65;0.65;;;-2.90;99.90;;;;;;5065388;28;20044;-80
2023/04/05 05:39:56;;;;;;;0.10;0.10;;;-2.80;99.90;;;;;;5050686;28;20060;-80
2023/04/05 05:42:21;;;;;;;0.15;0.15;;;-2.70;99.90;;;;;;5050863;28;20045;-80
2023/04/05 05:44:47;;;;;;;0.10;0.10;;;-2.50;99.90;;;;;;5050644;28;20045;-80
2023/04/05 05:47:13;;;;;;;0.85;0.85;;;-2.40;99.90;;;;;;5053810;28;20044;-80
2023/04/05 05:49:39;;;;;;;0.10;0.10;;;-2.30;99.90;;;;;;5071113;28;20139;-80
2023/04/05 05:52:04;;;;;;;0.10;0.10;;;-2.20;99.90;;;;;;5070076;28;20048;-80
2023/04/05 05:54:30;;;;;;;3.42;1.95;;;-2.30;99.90;;;;;;5066642;28;20037;-80
2023/04/05 05:56:56;;;;;;;0.30;0.30;;;-2.20;99.90;;;;;;5062410;28;20048;-80
2023/04/05 05:59:22;;;;;;;0.10;0.10;;;-2.00;99.90;;;;;;5070616;28;20051;-80
2023/04/05 06:01:50;;;;;;;0.10;0.10;;;-1.90;99.90;;;;;;5069388;28;20029;-80
2023/04/05 06:04:16;;;;;;;0.10;0.10;;;-1.80;99.90;;;;;;5066433;28;20105;-80
2023/04/05 06:06:42;;;;;;;4.85;2.20;;;-1.60;99.90;;;;;;5047034;28;20059;-80
2023/04/05 06:09:09;;;;;;;0.13;0.13;;;-1.50;99.90;;;;;;5047238;28;20522;-80
2023/04/05 06:11:35;;;;;;;0.20;0.20;;;-1.40;99.90;;;;;;5046794;28;20052;-80
2023/04/05 06:14:01;;;;;;;1.88;0.75;;;-1.30;99.90;;;;;;5046441;28;20469;-80
2023/04/05 06:16:28;;;;;;;0.63;0.63;;;-1.10;99.90;;;;;;5046476;28;20056;-80
2023/04/05 06:18:55;;;;;;;0.80;0.80;;;-0.90;99.90;;;;;;5046403;28;20052;-80
2023/04/05 06:21:20;;;;;;;1.35;1.10;;;-0.30;99.90;;;;;;5045688;28;20376;-80
2023/04/05 06:23:46;;;;;;;0.75;0.75;;;0.40;99.90;;;;;;5047406;28;20051;-80
2023/04/05 06:26:17;;;;;;;0.85;0.85;;;1.10;99.90;;;;;;5047989;28;20055;-80
2023/04/05 06:28:46;;;;;;;0.73;0.68;;;1.70;99.90;;;;;;5046580;28;20523;-80
2023/04/05 06:31:14;;;;;;;0.10;0.10;;;2.00;99.90;;;;;;5066323;28;20323;-80
2023/04/05 06:33:40;;;;;;;6.70;1.20;;;2.40;99.90;;;;;;5065554;28;20041;-80
2023/04/05 06:36:06;;;;;;;0.50;0.50;;;2.60;99.90;;;;;;5051618;28;20109;-80
2023/04/05 06:38:31;;;;;;;1.00;0.98;;;3.00;99.90;;;;;;5055033;28;20047;-80
2023/04/05 06:40:57;;;;;;;2.50;0.55;;;3.00;99.90;;;;;;5067905;28;20041;-81
2023/04/05 06:43:23;;;;;;;0.57;0.40;;;3.40;99.90;;;;;;5056419;28;20045;-80
2023/04/05 06:45:49;;;;;;;0.60;0.40;;;4.00;99.90;;;;;;5056807;28;20056;-81
2023/04/05 06:48:14;;;;;;;1.83;0.75;;;4.50;99.90;;;;;;5056256;28;20044;-81
2023/04/05 06:50:40;;;;;;;0.22;0.20;;;4.50;1.00;;;;;;5066153;28;20182;-81
2023/04/05 06:53:06;;;;;;;0.10;0.10;;;5.10;99.90;;;;;;5059971;28;20105;-81
2023/04/05 06:55:32;;;;;;;0.90;0.75;;;6.00;99.90;;;;;;5057784;28;20114;-80
2023/04/05 06:57:58;;;;;;;0.52;0.52;;;6.60;99.90;;;;;;5056952;28;20045;-81
2023/04/05 07:00:24;;;;;;;1.55;0.93;;;6.70;1.00;;;;;;5058232;28;20044;-81
2023/04/05 07:02:49;;;;;;;0.60;0.47;;;7.20;99.90;;;;;;5059421;28;20105;-81
2023/04/05 07:05:15;;;;;;;0.57;0.47;;;8.00;99.90;;;;;;5054588;28;20057;-81
2023/04/05 07:07:43;;;;;;;0.47;0.30;;;8.20;1.00;;;;;;5060364;28;20510;-81
2023/04/05 07:10:09;;;;;;;2.42;1.08;;;8.20;1.00;;;;;;5054524;28;20084;-81
2023/04/05 07:12:35;;;;;;;0.10;0.10;;;8.20;99.90;;;;;;5057648;28;20045;-82
2023/04/05 07:15:01;;;;;;;1.02;0.98;;;7.30;1.00;;;;;;5057446;28;20045;-81
2023/04/05 07:17:27;;;;;;;0.57;0.57;;;6.60;21.10;;;;;;5060044;28;20542;-81
2023/04/05 07:19:52;;;;;;;1.85;0.32;;;5.50;99.90;;;;;;5054487;28;20060;-81
2023/04/05 07:22:18;;;;;;;0.55;0.55;;;4.90;5.20;;;;;;5058592;28;20663;-81
2023/04/05 07:24:45;;;;;;;0.32;0.22;;;4.20;1.00;;;;;;5056869;28;20101;-82
2023/04/05 07:27:11;;;;;;;1.35;1.17;;;3.90;99.90;;;;;;5055756;28;20591;-81
2023/04/05 07:29:39;;;;;;;0.10;0.10;;;3.70;99.90;;;;;;5059642;28;20043;-81
2023/04/05 07:32:06;;;;;;;0.32;0.32;;;3.50;1.00;;;;;;5054719;28;20088;-81
2023/04/05 07:34:33;;;;;;;0.52;0.52;;;3.40;99.90;;;;;;5058632;28;20142;-81
2023/04/05 07:36:59;;;;;;;1.02;1.00;;;3.30;1.00;;;;;;5048147;28;20219;-81
2023/04/05 07:39:25;;;;;;;1.08;0.88;;;3.30;1.00;;;;;;5048260;28;20051;-81
2023/04/05 07:41:51;;;;;;;0.65;0.65;;;3.40;1.00;;;;;;5046811;28;20041;-81
2023/04/05 07:44:16;;;;;;;0.57;0.57;;;3.40;99.90;;;;;;5047468;28;20047;-82
2023/04/05 07:46:43;;;;;;;1.08;1.05;;;3.50;99.90;;;;;;5047564;28;20052;-81
2023/04/05 07:49:12;;;;;;;0.20;0.20;;;3.50;99.90;;;;;;5053526;28;20053;-81
2023/04/05 07:51:38;;;;;;;0.00;0.00;;;3.50;1.00;;;;;;5055730;28;20041;-81
2023/04/05 07:54:04;;;;;;;1.95;1.15;;;3.70;1.00;;;;;;5056298;28;20140;-81
2023/04/05 07:56:31;;;;;;;0.17;0.17;;;3.80;99.90;;;;;;5058052;28;20048;-81
2023/04/05 07:58:57;;;;;;;0.47;0.47;;;3.90;99.90;;;;;;5066368;28;20040;-81
2023/04/05 08:01:26;;;;;;;0.30;0.30;;;4.00;1.00;;;;;;5068952;28;20091;-81
2023/04/05 08:03:53;;;;;;;0.08;0.08;;;4.10;99.90;;;;;;5061826;28;20498;-81
2023/04/05 08:06:19;;;;;;;0.55;0.55;;;4.50;82.20;;;;;;5058526;28;20045;-81
2023/04/05 08:08:45;;;;;;;0.40;0.40;;;5.20;1.00;;;;;;5056040;28;20048;-81
2023/04/05 08:11:12;;;;;;;0.22;0.20;;;6.40;27.40;;;;;;5059004;28;20144;-81
2023/04/05 08:13:40;;;;;;;0.57;0.55;;;7.60;1.00;;;;;;5062098;28;20143;-81
2023/04/05 08:16:10;;;;;;;0.40;0.40;;;8.80;1.00;;;;;;5062139;28;20065;-82
2023/04/05 08:18:36;;;;;;;0.55;0.45;;;9.30;99.90;;;;;;5050904;28;20040;-81
2023/04/05 08:21:02;;;;;;;2.75;1.70;;;10.10;99.90;;;;;;5050986;28;20127;-81
2023/04/05 08:23:28;;;;;;;0.40;0.38;;;10.50;99.90;;;;;;5059492;28;20041;-81
2023/04/05 08:25:53;;;;;;;5.18;1.65;;;10.60;99.90;;;;;;5061625;28;20067;-82
2023/04/05 08:28:19;;;;;;;3.80;1.02;;;11.10;99.90;;;;;;5059068;28;20072;-82
2023/04/05 08:30:45;;;;;;;0.40;0.40;;;10.80;99.90;;;;;;5058374;28;20076;-82
2023/04/05 08:33:11;;;;;;;2.55;1.13;;;11.40;99.90;;;;;;5061675;28;20461;-82
2023/04/05 08:35:38;;;;;;;0.75;0.52;;;11.00;99.90;;;;;;5065918;28;20492;-81
2023/04/05 08:38:05;;;;;;;0.30;0.30;;;11.50;99.90;;;;;;5062060;28;20123;-80
2023/04/05 08:40:41;;;;;;;0.10;0.03;;;11.80;99.90;;;;;;5058503;28;20049;-80
2023/04/05 08:43:32;;;;;;;1.25;0.93;;;11.50;98.40;;;;;;5059839;28;20032;-81
2023/04/05 08:45:59;;;;;;;0.73;0.45;;;11.80;99.90;;;;;;5059871;28;20128;-81
2023/04/05 08:48:29;;;;;;;9.98;1.85;;;11.50;68.90;;;;;;5061516;28;20080;-81
2023/04/05 08:50:55;;;;;;;1.30;1.10;;;12.20;99.90;;;;;;5060070;28;20065;-81
2023/04/05 08:53:21;;;;;;;0.70;0.65;;;11.90;64.40;;;;;;5062403;28;20072;-80
2023/04/05 08:55:54;;;;;;;0.43;0.43;;;11.70;22.00;;;;;;5061434;28;20048;-80
2023/04/05 08:58:21;;;;;;;0.40;0.40;;;11.80;86.40;;;;;;5063218;28;20055;-81
2023/04/05 09:00:48;;;;;;;3.13;1.90;;;12.40;35.80;;;;;;5062439;28;20040;-80
2023/04/05 09:03:17;;;;;;;0.65;0.65;;;12.80;52.60;;;;;;5062357;28;20059;-80
2023/04/05 09:05:48;;;;;;;0.47;0.43;;;12.20;6.30;;;;;;5063855;28;20340;-80
2023/04/05 09:08:15;;;;;;;0.57;0.50;;;12.60;37.70;;;;;;5057253;28;20041;-80
2023/04/05 09:10:41;;;;;;;0.45;0.40;;;12.50;18.60;;;;;;5063264;28;20075;-82
2023/04/05 09:13:07;;;;;;;0.47;0.43;;;13.70;29.80;;;;;;5055040;28;20044;-82
2023/04/05 09:15:37;;;;;;;3.83;1.33;;;13.60;21.60;;;;;;5064347;28;20051;-82
2023/04/05 09:18:03;;;;;;;0.63;0.55;;;13.60;6.60;;;;;;5055462;28;20049;-82
2023/04/05 09:20:29;;;;;;;0.57;0.40;;;12.60;1.00;;;;;;5053906;28;20513;-82
2023/04/05 09:22:56;;;;;;;0.00;0.00;;;12.90;1.00;;;;;;5052151;28;20056;-82
2023/04/05 09:25:30;;;;;;;1.75;0.28;;;12.90;1.00;;;;;;5054667;28;20341;-82
2023/04/05 09:27:57;;;;;;;0.10;0.10;;;14.30;14.20;;;;;;5063521;28;20080;-81
2023/04/05 09:30:24;;;;;;;0.30;0.22;;;14.70;2.50;;;;;;5061125;28;20515;-81
2023/04/05 09:32:51;;;;;;;0.45;0.45;;;14.70;1.00;;;;;;5060325;28;20055;-82
2023/04/05 09:35:30;;;;;;;3.33;1.10;;;13.80;1.00;;;;;;5058748;28;20068;-81
2023/04/05 09:38:00;;;;;;;0.98;0.50;;;13.60;1.00;;;;;;5059910;28;20047;-81
2023/04/05 09:40:45;;;;;;;0.20;0.20;;;13.30;1.00;;;;;;5061660;28;20068;-81
2023/04/05 09:43:13;;;;;;;0.53;0.37;;;13.70;1.00;;;;;;5055662;28;20577;-81
2023/04/05 09:45:41;;;;;;;0.40;0.40;;;13.80;1.00;;;;;;5060373;28;20295;-81
2023/04/05 09:48:08;;;;;;;0.65;0.13;;;13.90;1.00;;;;;;5039318;28;20057;-82
2023/04/05 09:50:35;;;;;;;0.28;0.13;;;13.50;1.00;;;;;;5057124;28;20075;-82
2023/04/05 09:53:17;;;;;;;1.20;0.50;;;13.40;1.00;;;;;;5068592;28;20052;-82
2023/04/05 09:55:43;;;;;;;0.30;0.20;;;13.10;1.00;;;;;;5058940;28;20045;-81
2023/04/05 09:58:19;;;;;;;0.05;0.05;;;12.10;1.00;;;;;;5056937;28;20051;-81
2023/04/05 10:00:52;;;;;;;0.30;0.30;;;12.50;1.00;;;;;;5064714;28;20444;-82
2023/04/05 10:03:19;;;;;;;1.40;0.68;;;12.10;1.00;;;;;;5056668;28;20129;-82
2023/04/05 10:05:46;;;;;;;0.70;0.43;;;12.20;1.00;;;;;;5069026;28;20490;-82
2023/04/05 10:08:13;;;;;;;2.03;0.77;;;12.30;1.00;;;;;;5059448;28;20045;-82
2023/04/05 10:10:46;;;;;;;0.05;0.05;;;11.60;1.00;;;;;;5064719;28;20040;-82
2023/04/05 10:13:14;;;;;;;0.00;0.00;;;11.10;1.00;;;;;;5069254;28;20117;-82
2023/04/05 10:15:44;;;;;;;0.00;0.00;;;11.10;1.00;;;;;;5069367;28;20060;-82
2023/04/05 10:18:23;;;;;;;3.47;1.00;;;10.40;1.00;;;;;;5059539;28;20514;-82
2023/04/05 10:20:52;;;;;;;0.32;0.32;;;10.50;1.00;;;;;;5064598;28;20133;-82
2023/04/05 10:23:30;;;;;;;0.03;0.03;;;10.60;1.00;;;;;;5068446;28;20051;-82
2023/04/05 10:26:08;;;;;;;0.47;0.40;;;10.80;1.00;;;;;;5057230;28;20529;-82
2023/04/05 10:28:36;;;;;;;0.95;0.60;;;11.00;1.00;;;;;;5060598;28;20093;-82
2023/04/05 10:31:23;;;;;;;1.77;0.93;;;11.20;1.00;;;;;;5056794;28;20056;-82
2023/04/05 10:33:59;;;;;;;0.05;0.05;;;11.10;1.00;;;;;;5059523;28;20041;-82
2023/04/05 10:36:50;;;;;;;0.50;0.40;;;11.20;1.00;;;;;;5058264;28;20128;-82
2023/04/05 10:39:21;;;;;;;1.52;0.75;;;11.50;1.00;;;;;;5062168;28;20055;-83
2023/04/05 10:41:51;;;;;;;0.40;0.40;;;11.00;1.00;;;;;;5060058;28;20048;-82
2023/04/05 10:44:17;;;;;;;0.10;0.10;;;11.40;1.00;;;;;;5053736;28;20087;-83
2023/04/05 10:46:44;;;;;;;1.15;0.52;;;11.60;1.00;;;;;;5062056;28;20080;-82
2023/04/05 10:49:33;;;;;;;0.93;0.32;;;11.60;1.00;;;;;;5058286;28;20041;-82
2023/04/05 10:51:59;;;;;;;0.00;0.00;;;11.00;1.00;;;;;;5060026;28;20123;-83
2023/04/05 10:54:26;;;;;;;1.10;0.20;;;11.20;1.00;;;;;;5054824;28;20104;-82
2023/04/05 10:56:52;;;;;;;4.47;0.80;;;11.70;1.00;;;;;;5052994;28;20889;-82
2023/04/05 10:59:20;;;;;;;0.17;0.17;;;12.00;1.00;;;;;;5056176;28;20040;-83
2023/04/05 11:01:47;;;;;;;0.20;0.20;;;12.10;1.00;;;;;;5057455;28;20049;-83
2023/04/05 11:04:14;;;;;;;2.95;0.17;;;12.10;1.00;;;;;;5058220;28;20048;-82
2023/04/05 11:06:41;;;;;;;1.60;0.80;;;12.60;1.00;;;;;;5060022;28;20040;-83
2023/04/05 11:09:14;;;;;;;0.10;0.10;;;12.70;1.00;;;;;;5070699;28;20094;-83
2023/04/05 11:11:48;;;;;;;0.80;0.60;;;13.50;1.00;;;;;;5051235;28;20061;-81
2023/04/05 11:14:18;;;;;;;0.20;0.20;;;12.70;1.00;;;;;;5050916;28;20195;-81
2023/04/05 11:16:47;;;;;;;0.45;0.45;;;12.40;1.00;;;;;;5052375;28;20085;-83
2023/04/05 11:19:16;;;;;;;5.18;1.08;;;12.20;1.00;;;;;;5051248;28;20061;-84
2023/04/05 11:21:45;;;;;;;0.38;0.25;;;12.20;1.00;;;;;;5067216;28;20514;-84
2023/04/05 11:24:14;;;;;;;0.10;0.10;;;11.90;1.00;;;;;;5051231;28;20159;-83
2023/04/05 11:26:46;;;;;;;0.57;0.57;;;12.20;1.00;;;;;;5046871;28;20044;-83
2023/04/05 11:29:14;;;;;;;0.20;0.20;;;12.20;1.00;;;;;;5052087;28;20048;-83
2023/04/05 11:32:11;;;;;;;0.20;0.20;;;12.20;1.00;;;;;;5055466;28;20254;-84
2023/04/05 11:34:40;;;;;;;0.25;0.20;;;12.60;1.00;;;;;;5057651;28;20047;-84
2023/04/05 11:37:06;;;;;;;0.10;0.10;;;13.80;1.00;;;;;;5060484;28;20032;-84
2023/04/05 11:39:31;;;;;;;0.30;0.30;;;13.10;1.00;;;;;;5062547;28;20045;-84
2023/04/05 11:42:05;;;;;;;1.98;1.10;;;12.20;1.00;;;;;;5061569;28;20468;-84
2023/04/05 11:44:39;;;;;;;3.95;0.80;;;12.10;1.00;;;;;;5058692;28;20550;-83
2023/04/05 11:47:06;;;;;;;0.30;0.28;;;12.50;1.00;;;;;;5059414;28;20056;-83
2023/04/05 11:49:32;;;;;;;0.73;0.73;;;12.80;1.00;;;;;;5060908;28;20186;-83
2023/04/05 11:52:08;;;;;;;1.23;0.57;;;13.40;1.00;;;;;;5060412;28;20052;-84
2023/04/05 11:54:35;;;;;;;0.38;0.20;;;13.50;1.00;;;;;;5058357;28;20053;-82
2023/04/05 11:57:02;;;;;;;0.10;0.10;;;13.50;1.00;;;;;;5063455;28;20051;-81
2023/04/05 11:59:33;;;;;;;0.60;0.43;;;13.20;1.00;;;;;;5058538;28;20053;-82
2023/04/05 12:02:01;;;;;;;4.20;0.52;;;12.70;1.00;;;;;;5059288;28;20584;-81
2023/04/05 12:04:26;;;;;;;0.20;0.20;;;12.50;1.00;;;;;;5058530;28;20132;-81
2023/04/05 12:07:10;;;;;;;3.83;0.47;;;13.00;1.00;;;;;;5062284;28;20080;-83
2023/04/05 12:09:54;;;;;;;0.30;0.30;;;13.30;1.00;;;;;;5057005;28;20055;-82
2023/04/05 12:12:20;;;;;;;1.17;0.52;;;13.30;1.00;;;;;;5065363;28;20044;-82
2023/04/05 12:14:46;;;;;;;0.30;0.30;;;13.70;1.00;;;;;;5057732;28;20618;-82
2023/04/05 12:17:11;;;;;;;0.00;0.00;;;14.40;1.00;;;;;;5065727;28;20581;-82
2023/04/05 12:19:37;;;;;;;5.43;0.70;;;14.60;1.00;;;;;;5054978;28;20493;-82
2023/04/05 12:22:03;;;;;;;2.67;1.10;;;14.50;1.00;;;;;;5051934;28;20049;-82
2023/04/05 12:24:30;;;;;;;0.13;0.13;;;14.40;1.00;;;;;;5058049;28;20382;-82
2023/04/05 12:26:57;;;;;;;2.70;0.25;;;14.20;1.00;;;;;;5061586;28;20279;-82
2023/04/05 12:29:23;;;;;;;0.10;0.10;;;13.50;1.00;;;;;;5071410;28;20040;-82
2023/04/05 12:31:50;;;;;;;0.30;0.20;;;14.20;1.00;;;;;;5055748;28;20118;-82
2023/04/05 12:34:24;;;;;;;0.30;0.30;;;14.20;1.00;;;;;;5055265;28;20091;-82
2023/04/05 12:36:51;;;;;;;0.47;0.40;;;14.50;1.00;;;;;;5065232;28;20509;-82
2023/04/05 12:39:17;;;;;;;0.32;0.32;;;14.80;1.00;;;;;;5070987;28;20052;-82
2023/04/05 12:41:43;;;;;;;0.28;0.20;;;15.60;1.00;;;;;;5064165;28;20083;-81
2023/04/05 12:44:14;;;;;;;0.20;0.10;;;15.60;1.00;;;;;;5061656;28;20411;-81
2023/04/05 12:46:44;;;;;;;0.17;0.17;;;15.10;1.00;;;;;;5060495;28;20475;-82
2023/04/05 12:49:19;;;;;;;0.40;0.30;;;14.80;1.00;;;;;;5061455;28;21201;-82
2023/04/05 12:51:46;;;;;;;0.20;0.20;;;14.70;1.00;;;;;;5056533;28;20080;-81
2023/04/05 12:54:22;;;;;;;0.98;0.65;;;13.90;1.00;;;;;;5062064;28;20425;-81
2023/04/05 12:56:54;;;;;;;0.65;0.25;;;13.30;1.00;;;;;;5060929;28;20047;-82
2023/04/05 12:59:21;;;;;;;0.15;0.15;;;14.10;1.00;;;;;;5063230;28;20045;-82